createdAt,value
2022-12-27T00:00:22.478Z,102195.13
2022-12-27T00:05:27.033Z,102188.78
2022-12-27T00:10:30.419Z,102200.31
2022-12-27T00:15:35.257Z,102203.47
2022-12-27T00:20:39.723Z,102199.31
2022-12-27T00:25:42.833Z,102195.69
2022-12-27T00:30:45.990Z,102206.06
2022-12-27T00:35:50.482Z,102202.44
2022-12-27T00:40:53.546Z,102214.47
2022-12-27T00:45:56.517Z,102221.50
2022-12-27T00:51:03.588Z,102219.19
2022-12-27T00:56:08.752Z,102219.69
2022-12-27T01:01:15.147Z,102209.44
2022-12-27T01:06:22.318Z,102210.06
2022-12-27T01:11:26.777Z,102216.03
2022-12-27T01:16:32.236Z,102228.66
2022-12-27T01:21:36.673Z,102230.59
2022-12-27T01:26:39.757Z,102249.44
2022-12-27T01:31:43.037Z,102261.97
2022-12-27T01:36:47.804Z,102264.03
2022-12-27T01:42:08.234Z,102272.00
2022-12-27T01:47:18.283Z,102283.38
2022-12-27T01:52:26.226Z,102289.34
2022-12-27T01:57:29.932Z,102291.03
2022-12-27T02:02:33.518Z,102296.53
2022-12-27T02:07:44.534Z,102285.00
2022-12-27T02:12:47.878Z,102289.00
2022-12-27T02:17:50.906Z,102278.97
2022-12-27T02:23:55.677Z,102285.09
2022-12-27T02:29:16.028Z,102284.91
2022-12-27T02:34:25.317Z,102305.16
2022-12-27T02:39:30.476Z,102318.34
2022-12-27T02:44:52.406Z,102331.69
2022-12-27T02:50:13.562Z,102334.00
2022-12-27T02:55:31.078Z,102324.41
2022-12-27T03:01:01.695Z,102321.19
2022-12-27T03:06:43.558Z,102311.44
2022-12-27T03:12:09.251Z,102317.69
2022-12-27T03:17:24.378Z,102314.50
2022-12-27T03:22:48.868Z,102296.28
2022-12-27T03:28:07.863Z,102320.69
2022-12-27T03:33:15.898Z,102331.06
2022-12-27T03:38:18.882Z,102331.72
2022-12-27T03:43:22.045Z,102332.91
2022-12-27T03:48:31.500Z,102335.88
2022-12-27T03:53:39.568Z,102340.84
2022-12-27T03:58:42.608Z,102340.47
2022-12-27T04:03:46.911Z,102344.00
2022-12-27T04:09:07.884Z,102351.63
2022-12-27T04:14:28.168Z,102348.75
2022-12-27T04:19:50.077Z,102351.50
2022-12-27T04:25:11.557Z,102360.25
2022-12-27T04:30:32.100Z,102359.00
2022-12-27T04:35:36.655Z,102353.22
2022-12-27T04:40:57.378Z,102355.72
2022-12-27T04:46:32.464Z,102366.38
2022-12-27T04:51:59.738Z,102357.81
2022-12-27T04:57:02.857Z,102358.66
2022-12-27T05:02:06.112Z,102361.47
2022-12-27T05:07:30.307Z,102370.94
2022-12-27T05:12:50.701Z,102365.47
2022-12-27T05:17:53.829Z,102369.88
2022-12-27T05:23:15.449Z,102375.00
2022-12-27T05:28:18.400Z,102387.34
2022-12-27T05:33:21.383Z,102394.78
2022-12-27T05:38:27.721Z,102403.22
2022-12-27T05:43:32.377Z,102402.50
2022-12-27T05:48:36.216Z,102411.06
2022-12-27T05:53:41.160Z,102401.94
2022-12-27T05:58:44.955Z,102403.50
2022-12-27T06:03:48.779Z,102403.50
2022-12-27T06:08:53.204Z,102411.91
2022-12-27T06:13:56.256Z,102414.22
2022-12-27T06:19:00.013Z,102421.28
2022-12-27T06:24:04.576Z,102431.97
2022-12-27T06:29:08.057Z,102427.53
2022-12-27T06:34:11.790Z,102436.25
2022-12-27T06:39:16.243Z,102441.78
2022-12-27T06:44:19.298Z,102447.25
2022-12-27T06:49:22.291Z,102441.91
2022-12-27T06:54:26.838Z,102464.63
2022-12-27T06:59:30.471Z,102463.41
2022-12-27T07:04:33.478Z,102449.41
2022-12-27T07:09:37.894Z,102468.47
2022-12-27T07:14:40.891Z,102462.44
2022-12-27T07:19:43.891Z,102473.78
2022-12-27T07:24:48.239Z,102472.72
2022-12-27T07:29:51.746Z,102471.66
2022-12-27T07:34:54.688Z,102470.03
2022-12-27T07:39:59.014Z,102475.84
2022-12-27T07:45:01.975Z,102483.16
2022-12-27T07:50:05.360Z,102475.88
2022-12-27T07:55:10.302Z,102505.19
2022-12-27T08:00:14.278Z,102504.13
2022-12-27T08:05:21.431Z,102499.69
2022-12-27T08:10:29.056Z,102493.56
2022-12-27T08:15:32.489Z,102506.88
2022-12-27T08:20:35.671Z,102513.16
2022-12-27T08:25:46.769Z,102516.50
2022-12-27T08:30:51.628Z,102512.66
2022-12-27T08:35:57.187Z,102504.75
2022-12-27T08:41:01.606Z,102507.78
2022-12-27T08:46:07.884Z,102494.78
2022-12-27T08:51:13.851Z,102503.19
2022-12-27T08:56:20.354Z,102504.38
2022-12-27T09:01:25.591Z,102508.47
2022-12-27T09:06:28.735Z,102505.06
2022-12-27T09:11:35.352Z,102514.91
2022-12-27T09:16:38.335Z,102509.06
2022-12-27T09:21:44.203Z,102514.19
2022-12-27T09:26:48.814Z,102523.03
2022-12-27T09:31:52.835Z,102523.38
2022-12-27T09:36:58.246Z,102536.25
2022-12-27T09:47:46.173Z,102541.94
2022-12-27T09:52:58.997Z,102529.38
2022-12-27T09:58:27.171Z,102530.09
2022-12-27T10:03:31.830Z,102529.88
2022-12-27T10:08:45.179Z,102528.38
2022-12-27T10:13:57.445Z,102529.97
2022-12-27T10:19:15.569Z,102534.97
2022-12-27T10:24:23.891Z,102536.84
2022-12-27T10:29:33.058Z,102538.84
2022-12-27T10:34:36.422Z,102535.44
2022-12-27T10:39:40.563Z,102538.97
2022-12-27T10:44:45.209Z,102536.34
2022-12-27T10:50:05.807Z,102527.25
2022-12-27T10:55:33.815Z,102533.09
2022-12-27T11:00:38.604Z,102530.88
2022-12-27T11:05:41.658Z,102540.28
2022-12-27T11:10:45.090Z,102543.91
2022-12-27T11:15:58.861Z,102539.22
2022-12-27T11:21:03.422Z,102541.06
2022-12-27T11:26:07.990Z,102516.56
2022-12-27T11:31:16.285Z,102523.03
2022-12-27T11:36:27.435Z,102516.31
2022-12-27T11:41:39.017Z,102501.69
2022-12-27T11:46:57.087Z,102492.84
2022-12-27T11:52:17.616Z,102492.03
2022-12-27T11:57:34.058Z,102478.84
2022-12-27T12:03:07.938Z,102490.19
2022-12-27T12:08:43.772Z,102479.28
2022-12-27T12:14:14.875Z,102457.25
2022-12-27T12:19:35.682Z,102463.34
2022-12-27T12:24:54.986Z,102446.88
2022-12-27T12:30:16.335Z,102453.00
2022-12-27T12:35:52.505Z,102455.31
2022-12-27T12:41:36.859Z,102447.34
2022-12-27T12:46:48.711Z,102436.66
2022-12-27T12:52:06.582Z,102420.28
2022-12-27T12:57:27.677Z,102393.50
2022-12-27T13:02:57.987Z,102391.72
2022-12-27T13:08:10.270Z,102372.59
2022-12-27T13:13:18.649Z,102376.03
2022-12-27T13:18:30.693Z,102365.81
2022-12-27T13:23:46.245Z,102362.03
2022-12-27T13:29:07.147Z,102352.84
2022-12-27T13:34:28.369Z,102345.09
2022-12-27T13:39:49.862Z,102348.63
2022-12-27T13:45:05.252Z,102336.69
2022-12-27T13:50:37.870Z,102337.16
2022-12-27T13:55:57.248Z,102331.22
2022-12-27T14:01:12.832Z,102331.13
2022-12-27T14:06:48.567Z,102328.84
2022-12-27T14:12:08.335Z,102320.53
2022-12-27T14:17:27.536Z,102313.06
2022-12-27T14:22:50.974Z,102295.31
2022-12-27T14:28:31.713Z,102301.47
2022-12-27T14:34:15.411Z,102285.00
2022-12-27T14:40:21.341Z,102283.16
2022-12-27T14:45:59.476Z,102278.53
2022-12-27T14:52:00.031Z,102286.69
2022-12-27T14:57:14.013Z,102271.00
2022-12-27T15:02:45.740Z,102272.38
2022-12-27T15:08:16.983Z,102258.50
2022-12-27T15:13:28.819Z,102268.63
2022-12-27T15:18:50.964Z,102277.69
2022-12-27T15:23:58.881Z,102275.06
2022-12-27T15:29:17.915Z,102269.81
2022-12-27T15:34:37.540Z,102263.34
2022-12-27T15:39:50.554Z,102267.56
2022-12-27T15:45:02.013Z,102266.16
2022-12-27T15:50:21.419Z,102267.63
2022-12-27T15:55:41.416Z,102264.78
2022-12-27T16:00:46.209Z,102257.53
2022-12-27T16:05:53.128Z,102246.25
2022-12-27T16:11:00.275Z,102250.59
2022-12-27T16:16:04.451Z,102240.94
2022-12-27T16:21:14.676Z,102225.97
2022-12-27T16:26:20.331Z,102235.63
2022-12-27T16:31:25.089Z,102242.88
2022-12-27T16:36:33.385Z,102238.81
2022-12-27T16:41:58.530Z,102235.19
2022-12-27T16:47:11.542Z,102240.50
2022-12-27T16:52:32.659Z,102236.44
2022-12-27T16:57:42.192Z,102227.94
2022-12-27T17:02:50.097Z,102227.94
2022-12-27T17:08:14.492Z,102213.06
2022-12-27T17:13:20.946Z,102202.59
2022-12-27T17:18:29.851Z,102196.91
2022-12-27T17:23:39.599Z,102195.78
2022-12-27T17:28:51.862Z,102182.50
2022-12-27T17:34:05.965Z,102176.25
2022-12-27T17:39:26.425Z,102165.34
2022-12-27T17:44:42.058Z,102169.63
2022-12-27T17:49:45.606Z,102158.19
2022-12-27T17:55:07.538Z,102155.66
2022-12-27T18:00:23.664Z,102145.41
2022-12-27T18:05:30.116Z,102129.88
2022-12-27T18:10:37.052Z,102137.34
2022-12-27T18:15:46.122Z,102133.44
2022-12-27T18:20:56.607Z,102137.16
2022-12-27T18:26:13.381Z,102135.00
2022-12-27T18:31:26.833Z,102114.34
2022-12-27T18:36:32.985Z,102104.00
2022-12-27T18:41:42.395Z,102098.06
2022-12-27T18:46:50.025Z,102088.88
2022-12-27T18:51:53.619Z,102083.94
2022-12-27T18:57:03.117Z,102076.31
2022-12-27T19:02:35.663Z,102073.34
2022-12-27T19:07:38.780Z,102062.44
2022-12-27T19:12:44.215Z,102047.50
2022-12-27T19:17:50.269Z,102052.03
2022-12-27T19:22:55.799Z,102054.31
2022-12-27T19:28:05.779Z,102045.31
2022-12-27T19:33:14.969Z,102036.94
2022-12-27T19:38:21.800Z,102031.06
2022-12-27T19:43:28.103Z,102012.03
2022-12-27T19:48:31.151Z,102004.59
2022-12-27T19:53:38.051Z,101998.47
2022-12-27T19:58:42.420Z,101989.19
2022-12-27T20:03:45.444Z,101984.84
2022-12-27T20:08:51.615Z,101969.91
2022-12-27T20:13:55.995Z,101950.88
2022-12-27T20:18:59.086Z,101956.19
2022-12-27T20:24:02.123Z,101939.91
2022-12-27T20:29:06.696Z,101929.59
2022-12-27T20:34:11.444Z,101928.25
2022-12-27T20:39:14.522Z,101910.81
2022-12-27T20:44:19.341Z,101911.69
2022-12-27T20:49:23.008Z,101901.28
2022-12-27T20:54:26.061Z,101895.38
2022-12-27T20:59:30.464Z,101901.72
2022-12-27T21:04:33.733Z,101892.31
2022-12-27T21:09:37.565Z,101883.03
2022-12-27T21:14:41.992Z,101885.78
2022-12-27T21:19:45.025Z,101872.75
2022-12-27T21:24:48.075Z,101872.16
2022-12-27T21:29:52.536Z,101865.25
2022-12-27T21:34:55.571Z,101859.03
2022-12-27T21:39:58.685Z,101862.78
2022-12-27T21:45:03.126Z,101848.16
2022-12-27T21:50:06.752Z,101851.75
2022-12-27T21:55:10.655Z,101832.84
2022-12-27T22:00:16.825Z,101824.22
2022-12-27T22:05:20.069Z,101816.63
2022-12-27T22:10:23.337Z,101793.25
2022-12-27T22:15:30.823Z,101790.88
2022-12-27T22:20:34.058Z,101784.19
2022-12-27T22:25:42.234Z,101772.06
2022-12-27T22:30:46.850Z,101771.59
2022-12-27T22:35:49.938Z,101774.09
2022-12-27T22:40:52.951Z,101766.41
2022-12-27T22:45:57.312Z,101769.59
2022-12-27T22:51:00.394Z,101726.78
2022-12-27T22:56:03.434Z,101724.81
2022-12-27T23:01:14.094Z,101706.38
2022-12-27T23:06:17.342Z,101697.75
2022-12-27T23:11:21.736Z,101698.66
2022-12-27T23:16:26.757Z,101682.03
2022-12-27T23:21:29.819Z,101674.41
2022-12-27T23:26:33.213Z,101668.28
2022-12-27T23:31:54.751Z,101672.81
2022-12-27T23:36:59.316Z,101651.06
2022-12-27T23:42:02.347Z,101638.81
2022-12-27T23:47:06.981Z,101625.69
2022-12-27T23:52:10.057Z,101612.75
2022-12-27T23:57:19.878Z,101583.28
